Time;durP1;ratioP1;P1;durP2;ratioP2;P2;SDS_P1;SDS_P2;PMS_P1;PMS_P2;Temp;Humidity;BMP_temperature;BMP_pressure;BME280_temperature;BME280_humidity;BME280_pressure;Samples;Min_cycle;Max_cycle;Signal;HPM_P1;HPM_P2
2022/12/14 00:01:24;;;;;;;0.50;0.30;;;20.50;99.90;;;;;;5085656;28;20192;-82
2022/12/14 00:03:56;;;;;;;1.05;0.22;;;20.50;99.90;;;;;;5083315;28;20210;-86
2022/12/14 00:06:28;;;;;;;1.15;0.30;;;20.30;99.90;;;;;;5080803;28;20329;-83
2022/12/14 00:09:02;;;;;;;0.38;0.20;;;19.90;99.90;;;;;;5084567;28;20196;-84
2022/12/14 00:11:34;;;;;;;0.57;0.20;;;20.10;99.90;;;;;;5084109;28;20203;-83
2022/12/14 00:14:06;;;;;;;2.55;0.82;;;20.50;99.90;;;;;;5085821;28;20275;-82
2022/12/14 00:16:37;;;;;;;0.65;0.10;;;20.90;99.90;;;;;;5087246;28;20215;-82
2022/12/14 00:19:09;;;;;;;0.82;0.20;;;21.20;99.90;;;;;;5082971;28;20299;-80
2022/12/14 00:21:40;;;;;;;0.45;0.22;;;21.40;99.90;;;;;;5084843;28;20251;-83
2022/12/14 00:24:13;;;;;;;1.25;0.30;;;21.50;99.90;;;;;;5087959;28;20195;-86
2022/12/14 00:26:43;;;;;;;1.40;0.40;;;21.50;99.90;;;;;;5081384;28;20196;-82
2022/12/14 00:29:14;;;;;;;0.35;0.30;;;21.60;99.90;;;;;;5087854;28;20216;-79
2022/12/14 00:31:45;;;;;;;1.00;0.20;;;21.80;99.90;;;;;;5086397;28;20192;-85
2022/12/14 00:34:16;;;;;;;1.35;0.40;;;21.90;99.90;;;;;;5082749;28;20197;-81
2022/12/14 00:36:47;;;;;;;0.70;0.38;;;22.00;99.90;;;;;;5084617;28;20199;-81
2022/12/14 00:39:20;;;;;;;2.45;0.50;;;22.10;99.90;;;;;;5082252;28;20233;-85
2022/12/14 00:41:50;;;;;;;0.77;0.50;;;22.10;99.90;;;;;;5084707;28;20195;-86
2022/12/14 00:44:21;;;;;;;3.40;0.70;;;22.10;99.90;;;;;;5087615;28;20192;-82
2022/12/14 00:46:52;;;;;;;1.58;0.50;;;22.10;99.90;;;;;;5084493;28;20199;-84
2022/12/14 00:49:23;;;;;;;2.75;0.70;;;22.10;99.90;;;;;;5091630;28;20197;-82
2022/12/14 00:51:54;;;;;;;2.20;0.50;;;22.20;99.90;;;;;;5094131;28;20199;-82
2022/12/14 00:54:27;;;;;;;3.20;0.52;;;22.30;99.90;;;;;;5094657;28;20192;-83
2022/12/14 00:56:58;;;;;;;2.45;0.55;;;22.40;99.90;;;;;;5094457;28;20271;-84
2022/12/14 00:59:29;;;;;;;2.83;0.50;;;22.30;99.90;;;;;;5088561;28;20695;-84
2022/12/14 01:02:00;;;;;;;1.50;0.32;;;21.90;99.90;;;;;;5092338;28;20196;-81
2022/12/14 01:04:30;;;;;;;4.63;0.45;;;21.90;99.90;;;;;;5091607;28;20241;-82
2022/12/14 01:07:02;;;;;;;1.17;0.30;;;22.00;99.90;;;;;;5094373;28;20210;-85
2022/12/14 01:09:34;;;;;;;1.10;0.45;;;22.10;99.90;;;;;;5092378;28;20192;-84
2022/12/14 01:12:05;;;;;;;1.30;0.47;;;22.20;99.90;;;;;;5093751;28;20573;-80
2022/12/14 01:14:36;;;;;;;1.08;0.40;;;22.10;99.80;;;;;;5086011;28;20197;-81
2022/12/14 01:17:07;;;;;;;1.05;0.50;;;22.10;99.90;;;;;;5090851;28;20192;-80
2022/12/14 01:19:38;;;;;;;2.85;0.40;;;22.10;99.60;;;;;;5092610;28;20192;-82
2022/12/14 01:22:09;;;;;;;3.08;0.45;;;22.30;99.60;;;;;;5088521;28;20194;-83
2022/12/14 01:24:45;;;;;;;1.52;0.40;;;22.50;99.90;;;;;;5093347;28;20198;-84
2022/12/14 01:27:15;;;;;;;1.63;0.40;;;22.70;98.50;;;;;;5094069;28;20278;-81
2022/12/14 01:29:46;;;;;;;2.10;0.40;;;22.50;99.00;;;;;;5085725;28;20272;-84
2022/12/14 01:32:17;;;;;;;0.60;0.20;;;22.60;98.80;;;;;;5091583;28;20189;-81
2022/12/14 01:34:49;;;;;;;3.63;0.43;;;22.70;99.30;;;;;;5090649;28;20299;-85
2022/12/14 01:37:20;;;;;;;1.48;0.30;;;22.90;98.30;;;;;;5073698;28;20207;-85
2022/12/14 01:39:54;;;;;;;2.47;0.50;;;23.00;98.30;;;;;;5074401;28;20185;-82
2022/12/14 01:42:26;;;;;;;1.48;0.40;;;23.30;97.60;;;;;;5073907;28;20197;-83
2022/12/14 01:44:58;;;;;;;0.93;0.40;;;23.20;96.90;;;;;;5074320;28;20193;-85
2022/12/14 01:47:38;;;;;;;2.47;0.40;;;23.20;96.60;;;;;;5082290;28;20275;-83
2022/12/14 01:50:17;;;;;;;0.98;0.30;;;23.10;96.30;;;;;;5094224;28;20658;-86
2022/12/14 01:52:50;;;;;;;2.85;0.40;;;23.00;96.30;;;;;;5090424;28;20195;-84
2022/12/14 01:55:26;;;;;;;0.98;0.30;;;23.10;96.60;;;;;;5094210;28;20208;-85
2022/12/14 01:58:00;;;;;;;1.98;0.30;;;23.20;96.10;;;;;;5094755;28;20183;-87
2022/12/14 02:00:31;;;;;;;1.63;0.50;;;23.20;94.60;;;;;;5094236;28;20192;-82
2022/12/14 02:03:06;;;;;;;2.13;0.40;;;23.20;95.00;;;;;;5094264;28;20569;-87
2022/12/14 02:05:40;;;;;;;1.55;0.40;;;23.10;95.30;;;;;;5094021;28;20622;-82
2022/12/14 02:08:12;;;;;;;0.60;0.30;;;23.10;96.00;;;;;;5094074;28;20191;-86
2022/12/14 02:10:45;;;;;;;1.85;0.40;;;23.30;95.80;;;;;;5093959;28;20574;-84
2022/12/14 02:13:21;;;;;;;0.95;0.35;;;23.50;94.30;;;;;;5093955;28;20195;-86
2022/12/14 02:15:53;;;;;;;1.13;0.30;;;23.40;94.60;;;;;;5093759;28;20223;-87
2022/12/14 02:18:27;;;;;;;0.57;0.45;;;23.20;94.30;;;;;;5093978;28;20287;-82
2022/12/14 02:21:19;;;;;;;1.98;0.40;;;23.20;94.00;;;;;;5093644;28;20188;-83
2022/12/14 02:24:19;;;;;;;1.30;0.20;;;23.30;94.90;;;;;;5087076;28;20192;-86
2022/12/14 02:27:20;;;;;;;1.85;0.38;;;23.40;94.00;;;;;;5073966;28;20204;-82
2022/12/14 02:30:07;;;;;;;1.38;0.30;;;23.20;93.70;;;;;;5082461;28;20746;-83
2022/12/14 02:33:04;;;;;;;1.25;0.30;;;23.30;93.00;;;;;;5073762;28;20284;-84
2022/12/14 02:35:44;;;;;;;1.35;0.52;;;23.40;93.50;;;;;;5083566;28;20583;-84
2022/12/14 02:38:29;;;;;;;1.40;0.35;;;23.50;93.00;;;;;;5093647;28;20698;-81
2022/12/14 02:41:07;;;;;;;2.22;0.32;;;23.60;92.70;;;;;;5093546;28;20188;-84
2022/12/14 02:43:51;;;;;;;0.70;0.32;;;23.50;92.70;;;;;;5093370;28;20630;-85
2022/12/14 02:46:33;;;;;;;2.13;0.50;;;23.40;92.50;;;;;;5093711;28;20530;-84
2022/12/14 02:49:08;;;;;;;1.92;0.70;;;23.40;92.40;;;;;;5073145;28;20189;-79
2022/12/14 02:51:50;;;;;;;1.98;0.30;;;23.60;92.20;;;;;;5073286;28;20632;-82
2022/12/14 02:54:27;;;;;;;1.27;0.35;;;23.70;91.60;;;;;;5072677;28;20195;-84
2022/12/14 02:57:03;;;;;;;1.48;0.57;;;23.60;91.30;;;;;;5073489;28;20586;-84
2022/12/14 02:59:36;;;;;;;2.45;0.60;;;23.60;91.00;;;;;;5073309;28;20192;-85
2022/12/14 03:02:09;;;;;;;1.70;0.52;;;23.70;91.00;;;;;;5073037;28;20193;-81
2022/12/14 03:04:44;;;;;;;2.03;0.50;;;23.70;90.80;;;;;;5077801;28;20244;-82
2022/12/14 03:07:38;;;;;;;2.55;0.50;;;23.90;91.20;;;;;;5086569;28;20204;-84
2022/12/14 03:10:18;;;;;;;1.27;0.40;;;24.10;91.00;;;;;;5071927;28;20664;-82
2022/12/14 03:12:56;;;;;;;1.42;0.32;;;24.20;90.00;;;;;;5073377;28;20723;-84
2022/12/14 03:15:31;;;;;;;2.25;0.50;;;24.10;88.90;;;;;;5074794;28;20219;-86
2022/12/14 03:18:07;;;;;;;1.00;0.40;;;23.80;89.30;;;;;;5082491;28;20195;-84
2022/12/14 03:20:41;;;;;;;1.00;0.20;;;23.70;89.50;;;;;;5073185;28;20188;-87
2022/12/14 03:23:16;;;;;;;0.95;0.28;;;23.80;90.10;;;;;;5073238;28;20195;-86
2022/12/14 03:25:50;;;;;;;0.45;0.22;;;23.80;88.70;;;;;;5073283;28;20189;-85
2022/12/14 03:28:25;;;;;;;1.15;0.90;;;23.90;87.50;;;;;;5073423;28;20265;-85
2022/12/14 03:31:03;;;;;;;1.83;0.47;;;24.00;85.10;;;;;;5084115;28;20185;-89
2022/12/14 03:33:38;;;;;;;0.75;0.40;;;24.10;86.70;;;;;;5073141;28;20193;-82
2022/12/14 03:36:14;;;;;;;2.47;0.38;;;24.10;85.70;;;;;;5088113;28;20698;-84
2022/12/14 03:38:46;;;;;;;0.88;0.38;;;24.10;83.40;;;;;;5093093;28;20841;-86
2022/12/14 03:41:23;;;;;;;1.60;0.20;;;24.10;82.90;;;;;;5090103;28;20218;-87
2022/12/14 03:44:04;;;;;;;0.82;0.28;;;24.20;84.20;;;;;;5093004;28;20195;-83
2022/12/14 03:46:44;;;;;;;0.20;0.20;;;24.10;84.20;;;;;;5096597;28;20196;-87
2022/12/14 03:49:23;;;;;;;1.48;0.57;;;24.00;84.70;;;;;;5102195;28;20195;-84
2022/12/14 03:52:01;;;;;;;0.30;0.20;;;24.20;84.60;;;;;;5094033;28;20194;-84
2022/12/14 03:54:45;;;;;;;0.32;0.10;;;24.20;84.30;;;;;;5092868;28;20188;-87
2022/12/14 03:57:23;;;;;;;0.68;0.30;;;24.30;82.80;;;;;;5092935;28;20569;-87
2022/12/14 04:00:00;;;;;;;1.13;0.20;;;24.40;83.20;;;;;;5092739;28;20192;-84
2022/12/14 04:02:36;;;;;;;6.03;0.40;;;24.40;82.90;;;;;;5088246;28;20202;-85
2022/12/14 04:05:13;;;;;;;0.20;0.20;;;24.50;83.20;;;;;;5094480;28;20194;-84
2022/12/14 04:07:53;;;;;;;0.35;0.10;;;24.60;83.80;;;;;;5096312;28;20192;-82
2022/12/14 04:19:21;;;;;;;2.25;0.30;;;24.70;82.20;;;;;;5033767;28;20240;-83
2022/12/14 04:21:58;;;;;;;1.00;0.38;;;24.70;83.50;;;;;;5033794;28;20190;-81
2022/12/14 04:27:26;;;;;;;1.17;0.35;;;24.70;83.40;;;;;;5096143;28;20274;-84
2022/12/14 04:29:57;;;;;;;1.00;0.30;;;24.60;82.90;;;;;;5084831;28;20305;-86
2022/12/14 04:32:33;;;;;;;0.95;0.40;;;24.40;83.10;;;;;;5094392;28;20275;-85
2022/12/14 04:35:10;;;;;;;0.38;0.20;;;24.30;83.10;;;;;;5091043;28;20211;-78
2022/12/14 04:37:47;;;;;;;1.52;0.30;;;24.30;82.60;;;;;;5090062;28;20316;-82
2022/12/14 04:40:25;;;;;;;1.65;0.25;;;24.20;82.40;;;;;;5077252;28;20192;-87
2022/12/14 04:42:59;;;;;;;1.10;0.20;;;24.20;83.60;;;;;;5081650;28;20211;-85
2022/12/14 04:45:32;;;;;;;0.38;0.13;;;24.20;83.80;;;;;;5095802;28;20198;-83
2022/12/14 04:48:10;;;;;;;1.15;0.20;;;24.20;84.30;;;;;;5091683;28;20659;-82
2022/12/14 04:50:47;;;;;;;0.40;0.30;;;24.30;84.80;;;;;;5086533;28;20192;-82
2022/12/14 04:53:23;;;;;;;0.63;0.25;;;24.30;84.20;;;;;;5084869;28;20194;-83
2022/12/14 04:55:59;;;;;;;0.60;0.30;;;24.30;82.80;;;;;;5095716;28;20216;-85
2022/12/14 04:58:31;;;;;;;1.08;0.20;;;24.30;84.40;;;;;;5076255;28;20202;-83
2022/12/14 05:01:23;;;;;;;1.10;0.20;;;24.30;83.80;;;;;;5075341;28;20199;-87
2022/12/14 05:04:04;;;;;;;0.47;0.25;;;24.20;84.10;;;;;;5085541;28;20193;-83
2022/12/14 05:06:41;;;;;;;1.27;0.10;;;24.30;83.80;;;;;;5075189;28;20189;-84
2022/12/14 05:09:22;;;;;;;0.65;0.10;;;24.30;84.30;;;;;;5079548;28;20662;-82
2022/12/14 05:11:57;;;;;;;1.05;0.20;;;24.30;85.80;;;;;;5082536;28;20196;-83
2022/12/14 05:14:35;;;;;;;0.85;0.13;;;24.20;85.50;;;;;;5086037;28;20202;-83
2022/12/14 05:17:08;;;;;;;0.73;0.10;;;24.20;86.40;;;;;;5081813;28;20676;-82
2022/12/14 05:19:39;;;;;;;2.20;0.20;;;24.30;87.30;;;;;;5085027;28;20193;-82
2022/12/14 05:22:10;;;;;;;1.67;0.50;;;24.20;88.30;;;;;;5083427;28;20192;-83
2022/12/14 05:24:43;;;;;;;1.42;0.35;;;24.40;88.10;;;;;;5086943;28;20181;-84
2022/12/14 05:27:14;;;;;;;1.17;0.10;;;24.40;86.60;;;;;;5087256;28;20189;-84
2022/12/14 05:29:45;;;;;;;0.70;0.20;;;24.30;87.00;;;;;;5081385;28;20212;-83
2022/12/14 05:32:18;;;;;;;1.08;0.20;;;24.10;85.90;;;;;;5087294;28;20246;-83
2022/12/14 05:34:52;;;;;;;0.15;0.10;;;24.00;86.00;;;;;;5082389;28;20180;-84
2022/12/14 05:37:22;;;;;;;0.70;0.17;;;23.80;86.40;;;;;;5087805;28;20212;-85
2022/12/14 05:39:55;;;;;;;1.63;0.20;;;23.70;87.70;;;;;;5084354;28;20573;-81
2022/12/14 05:42:26;;;;;;;2.22;0.38;;;23.80;87.90;;;;;;5082628;28;20204;-84
2022/12/14 05:44:57;;;;;;;0.65;0.20;;;23.70;88.00;;;;;;5089774;28;20196;-82
2022/12/14 05:47:28;;;;;;;0.70;0.20;;;23.50;88.40;;;;;;5086705;28;20201;-85
2022/12/14 05:49:59;;;;;;;0.73;0.20;;;23.60;88.80;;;;;;5084002;28;20236;-84
2022/12/14 05:52:30;;;;;;;2.10;0.30;;;23.70;88.80;;;;;;5086900;28;20200;-82
2022/12/14 05:55:05;;;;;;;0.82;0.20;;;23.90;88.20;;;;;;5087186;28;20197;-86
2022/12/14 05:57:36;;;;;;;1.27;0.20;;;23.90;87.70;;;;;;5080461;28;20639;-79
2022/12/14 06:00:08;;;;;;;0.50;0.20;;;23.80;88.70;;;;;;5085377;28;20238;-83
2022/12/14 06:02:38;;;;;;;2.25;0.20;;;23.90;88.10;;;;;;5082955;28;20247;-80
2022/12/14 06:05:10;;;;;;;1.85;0.47;;;23.80;87.40;;;;;;5080530;28;20193;-77
2022/12/14 06:07:40;;;;;;;0.80;0.20;;;23.70;87.40;;;;;;5090883;28;20664;-85
2022/12/14 06:10:13;;;;;;;1.90;0.30;;;23.50;87.30;;;;;;5089228;28;20651;-83
2022/12/14 06:12:44;;;;;;;0.63;0.20;;;23.60;87.90;;;;;;5086927;28;20647;-85
2022/12/14 06:15:15;;;;;;;2.08;0.35;;;23.40;88.20;;;;;;5080760;28;20215;-82
2022/12/14 06:17:46;;;;;;;1.83;0.22;;;23.40;89.00;;;;;;5079018;28;20300;-81
2022/12/14 06:20:17;;;;;;;0.75;0.30;;;23.50;89.80;;;;;;5081710;28;20534;-84
2022/12/14 06:22:48;;;;;;;0.95;0.40;;;23.60;89.00;;;;;;5084939;28;20192;-85
2022/12/14 06:25:20;;;;;;;1.58;0.30;;;23.60;89.30;;;;;;5086119;28;20200;-85
2022/12/14 06:27:55;;;;;;;19.38;13.48;;;23.60;88.30;;;;;;5078506;28;20607;-85
2022/12/14 06:30:26;;;;;;;9.93;5.72;;;23.60;89.00;;;;;;5082899;28;20219;-84
2022/12/14 06:32:57;;;;;;;3.75;2.42;;;23.30;88.50;;;;;;5082379;28;20370;-85
2022/12/14 06:35:28;;;;;;;2.10;0.70;;;23.10;89.80;;;;;;5080545;28;20209;-84
2022/12/14 06:37:58;;;;;;;1.25;0.35;;;22.90;90.00;;;;;;5081148;28;20246;-86
2022/12/14 06:40:31;;;;;;;1.05;0.30;;;22.70;90.10;;;;;;5080450;28;20211;-79
2022/12/14 06:43:02;;;;;;;1.08;0.47;;;22.70;90.30;;;;;;5082919;28;20200;-85
2022/12/14 06:45:33;;;;;;;0.85;0.35;;;22.80;90.10;;;;;;5081649;28;20192;-85
2022/12/14 06:48:04;;;;;;;1.48;0.35;;;23.00;90.00;;;;;;5085037;28;20196;-81
2022/12/14 06:50:35;;;;;;;0.55;0.30;;;23.00;90.10;;;;;;5086238;28;20192;-82
2022/12/14 06:53:05;;;;;;;0.95;0.30;;;23.00;90.10;;;;;;5084611;28;20188;-83
2022/12/14 06:55:38;;;;;;;4.25;0.50;;;23.20;90.10;;;;;;5081047;28;20283;-84
2022/12/14 06:58:11;;;;;;;0.68;0.30;;;23.20;90.30;;;;;;5080552;28;20224;-83
2022/12/14 07:00:42;;;;;;;0.43;0.15;;;23.10;90.70;;;;;;5084756;28;20193;-83
2022/12/14 07:03:13;;;;;;;0.10;0.10;;;23.00;90.30;;;;;;5077456;28;20196;-85
2022/12/14 07:05:44;;;;;;;2.63;0.15;;;22.90;90.60;;;;;;5081696;28;20193;-83
2022/12/14 07:08:15;;;;;;;0.88;0.17;;;22.90;90.30;;;;;;5078808;28;20196;-83
2022/12/14 07:10:47;;;;;;;0.60;0.30;;;22.80;90.50;;;;;;5079124;28;20180;-82
2022/12/14 07:13:18;;;;;;;0.65;0.30;;;22.80;90.70;;;;;;5081726;28;20543;-76
2022/12/14 07:15:54;;;;;;;1.17;0.30;;;22.80;90.40;;;;;;5090155;28;20188;-85
2022/12/14 07:18:25;;;;;;;1.65;0.20;;;22.70;90.50;;;;;;5084147;28;20264;-82
2022/12/14 07:21:00;;;;;;;1.27;0.20;;;22.60;90.80;;;;;;5079316;28;20195;-79
2022/12/14 07:23:33;;;;;;;0.68;0.30;;;22.50;91.10;;;;;;5082559;28;20223;-84
2022/12/14 07:26:09;;;;;;;0.20;0.20;;;22.40;91.30;;;;;;5081885;28;20187;-85
2022/12/14 07:28:40;;;;;;;1.10;0.20;;;22.50;91.50;;;;;;5081954;28;20223;-81
2022/12/14 07:31:14;;;;;;;0.82;0.20;;;22.50;91.30;;;;;;5083281;28;20193;-83
2022/12/14 07:33:45;;;;;;;0.88;0.25;;;22.50;90.90;;;;;;5083997;28;20245;-83
2022/12/14 07:36:17;;;;;;;11.23;7.75;;;22.30;90.60;;;;;;5080161;28;20665;-86
2022/12/14 07:38:49;;;;;;;2.78;1.48;;;22.30;90.90;;;;;;5081361;28;20703;-82
2022/12/14 07:41:23;;;;;;;0.95;0.43;;;22.20;90.90;;;;;;5082128;28;20192;-84
2022/12/14 07:43:55;;;;;;;7.05;4.20;;;22.20;91.20;;;;;;5083349;28;20189;-83
2022/12/14 07:46:28;;;;;;;10.75;6.95;;;22.20;91.20;;;;;;5085576;28;20192;-83
2022/12/14 07:49:00;;;;;;;9.70;6.40;;;22.20;91.50;;;;;;5085773;28;20192;-82
2022/12/14 07:51:32;;;;;;;1.80;1.15;;;22.30;91.40;;;;;;5085584;28;20203;-84
2022/12/14 07:54:07;;;;;;;0.80;0.30;;;22.40;91.30;;;;;;5085581;28;20201;-83
2022/12/14 07:56:42;;;;;;;0.75;0.40;;;22.30;90.90;;;;;;5086316;28;20214;-84
2022/12/14 07:59:16;;;;;;;1.27;0.50;;;22.20;91.10;;;;;;5086276;28;20180;-82
2022/12/14 08:01:47;;;;;;;1.75;0.40;;;22.00;91.30;;;;;;5085878;28;20199;-79
2022/12/14 08:04:19;;;;;;;0.38;0.20;;;22.00;91.50;;;;;;5084139;28;20651;-83
2022/12/14 08:06:50;;;;;;;1.55;0.28;;;21.90;91.10;;;;;;5086272;28;20665;-83
2022/12/14 08:09:21;;;;;;;3.08;0.28;;;21.80;91.00;;;;;;5082849;28;20197;-82
2022/12/14 08:11:54;;;;;;;0.77;0.17;;;21.70;91.20;;;;;;5086459;28;20196;-85
2022/12/14 08:14:25;;;;;;;0.30;0.20;;;21.60;91.50;;;;;;5084601;28;20195;-84
2022/12/14 08:16:55;;;;;;;3.35;0.30;;;21.50;91.70;;;;;;5084281;28;20217;-84
2022/12/14 08:19:26;;;;;;;0.52;0.20;;;21.40;91.70;;;;;;5086955;28;20935;-84
2022/12/14 08:21:57;;;;;;;1.48;0.30;;;21.30;91.90;;;;;;5084670;28;20627;-81
2022/12/14 08:24:28;;;;;;;0.43;0.35;;;21.20;92.00;;;;;;5084877;28;20197;-82
2022/12/14 08:27:01;;;;;;;1.23;0.20;;;21.10;91.90;;;;;;5085995;28;20185;-84
2022/12/14 08:29:32;;;;;;;1.00;0.20;;;21.10;91.90;;;;;;5085599;28;21502;-81
2022/12/14 08:32:02;;;;;;;2.13;0.30;;;21.00;91.80;;;;;;5082410;28;20675;-84
2022/12/14 08:34:33;;;;;;;0.43;0.17;;;21.00;91.60;;;;;;5083161;28;20213;-83
2022/12/14 08:37:04;;;;;;;1.30;0.20;;;20.90;91.50;;;;;;5086946;28;20266;-84
2022/12/14 08:39:35;;;;;;;0.50;0.30;;;20.70;91.60;;;;;;5084779;28;20686;-81
2022/12/14 08:42:08;;;;;;;1.20;0.57;;;20.70;91.70;;;;;;5084655;28;20197;-82
2022/12/14 08:44:38;;;;;;;1.63;0.30;;;20.60;91.80;;;;;;5081801;28;20647;-83
2022/12/14 08:47:09;;;;;;;1.13;0.43;;;20.60;91.80;;;;;;5084683;28;20655;-80
2022/12/14 08:49:40;;;;;;;1.63;0.60;;;20.50;91.80;;;;;;5084273;28;20755;-83
2022/12/14 08:52:13;;;;;;;0.85;0.30;;;20.40;91.80;;;;;;5083057;28;20635;-83
2022/12/14 08:54:44;;;;;;;0.13;0.13;;;20.40;92.00;;;;;;5088324;28;20230;-80
2022/12/14 08:57:16;;;;;;;0.70;0.20;;;20.40;92.00;;;;;;5086436;28;20212;-81
2022/12/14 08:59:47;;;;;;;0.70;0.20;;;20.30;92.20;;;;;;5082168;28;20207;-83
2022/12/14 09:02:18;;;;;;;0.68;0.30;;;20.20;92.20;;;;;;5082748;28;20188;-81
2022/12/14 09:04:49;;;;;;;0.95;0.30;;;20.20;92.10;;;;;;5084908;28;20196;-79
2022/12/14 09:07:19;;;;;;;1.13;0.43;;;20.10;92.30;;;;;;5077745;28;20672;-80
2022/12/14 09:09:50;;;;;;;0.68;0.20;;;20.10;92.40;;;;;;5085361;28;20551;-81
2022/12/14 09:12:23;;;;;;;1.52;0.30;;;20.10;92.50;;;;;;5083094;28;20217;-82
2022/12/14 09:14:54;;;;;;;0.50;0.28;;;20.00;92.70;;;;;;5081773;28;20192;-78
2022/12/14 09:17:24;;;;;;;0.25;0.20;;;20.00;92.70;;;;;;5082720;28;20209;-80
2022/12/14 09:19:56;;;;;;;0.45;0.20;;;20.00;93.30;;;;;;5084870;28;20188;-81
2022/12/14 09:22:27;;;;;;;2.38;0.20;;;19.90;93.00;;;;;;5083343;28;20254;-80
2022/12/14 09:24:59;;;;;;;0.40;0.30;;;19.90;93.40;;;;;;5084626;28;20878;-79
2022/12/14 09:27:32;;;;;;;1.85;0.30;;;19.90;93.30;;;;;;5082167;28;20919;-79
2022/12/14 09:30:03;;;;;;;0.20;0.20;;;19.90;93.30;;;;;;5085189;28;20606;-80
2022/12/14 09:32:33;;;;;;;1.30;0.30;;;19.90;93.40;;;;;;5083359;28;20250;-83
2022/12/14 09:35:05;;;;;;;0.20;0.20;;;19.90;93.60;;;;;;5082279;28;20220;-80
2022/12/14 09:37:37;;;;;;;0.57;0.20;;;19.80;93.60;;;;;;5081710;28;20235;-79
2022/12/14 09:40:09;;;;;;;0.50;0.32;;;19.80;93.80;;;;;;5083011;28;20222;-82
2022/12/14 09:42:55;;;;;;;0.60;0.47;;;19.70;93.90;;;;;;5081707;28;20219;-79
2022/12/14 09:45:30;;;;;;;0.90;0.40;;;19.70;94.00;;;;;;5084317;28;20598;-80
2022/12/14 09:48:06;;;;;;;2.17;0.50;;;19.70;94.30;;;;;;5085760;28;20206;-81
2022/12/14 09:50:38;;;;;;;1.45;0.40;;;19.60;94.20;;;;;;5084836;28;20195;-81
2022/12/14 09:53:13;;;;;;;0.68;0.30;;;19.60;94.40;;;;;;5079136;28;20671;-81
2022/12/14 09:55:47;;;;;;;1.02;0.30;;;19.60;94.50;;;;;;5082477;28;20200;-81
2022/12/14 09:58:23;;;;;;;0.20;0.20;;;19.50;94.50;;;;;;5080360;28;20591;-80
2022/12/14 10:01:00;;;;;;;0.52;0.20;;;19.50;94.60;;;;;;5086315;28;20204;-80
2022/12/14 10:03:52;;;;;;;0.40;0.40;;;19.50;94.70;;;;;;5079846;28;20214;-81
2022/12/14 10:06:42;;;;;;;0.45;0.40;;;19.50;94.80;;;;;;5084025;28;20224;-81
2022/12/14 10:09:25;;;;;;;1.30;0.30;;;19.40;94.90;;;;;;5086144;28;20207;-81
2022/12/14 10:12:06;;;;;;;1.42;0.28;;;19.40;95.00;;;;;;5079995;28;20555;-80
2022/12/14 10:15:00;;;;;;;0.65;0.22;;;19.40;95.10;;;;;;5085116;28;20204;-81
2022/12/14 10:17:43;;;;;;;1.23;0.30;;;19.40;95.30;;;;;;5082883;28;20212;-82
2022/12/14 10:20:22;;;;;;;0.85;0.30;;;19.40;95.50;;;;;;5081166;28;20249;-81
2022/12/14 10:22:55;;;;;;;1.27;0.30;;;19.30;95.40;;;;;;5083879;28;20196;-81
2022/12/14 10:25:27;;;;;;;0.30;0.28;;;19.30;95.50;;;;;;5081436;28;20276;-81
2022/12/14 10:28:02;;;;;;;1.90;0.20;;;19.30;95.70;;;;;;5079884;28;20200;-81
2022/12/14 10:30:35;;;;;;;0.55;0.28;;;19.20;95.70;;;;;;5087720;28;20188;-82
2022/12/14 10:33:14;;;;;;;0.38;0.20;;;19.20;95.80;;;;;;5082708;28;20707;-80
2022/12/14 10:35:52;;;;;;;1.00;0.40;;;19.20;96.00;;;;;;5083054;28;20200;-81
2022/12/14 10:38:29;;;;;;;0.60;0.20;;;19.10;96.10;;;;;;5080383;28;20454;-82
2022/12/14 10:41:08;;;;;;;2.05;0.40;;;19.10;96.20;;;;;;5083330;28;20223;-82
2022/12/14 10:43:50;;;;;;;0.40;0.20;;;19.10;96.40;;;;;;5086161;28;20212;-81
2022/12/14 10:46:31;;;;;;;2.05;0.30;;;19.10;96.50;;;;;;5079805;28;20532;-78
2022/12/14 10:49:08;;;;;;;1.58;0.70;;;19.10;96.60;;;;;;5082689;28;20196;-80
2022/12/14 10:51:42;;;;;;;1.13;0.40;;;19.10;96.70;;;;;;5084981;28;20550;-81
2022/12/14 10:54:29;;;;;;;2.72;0.25;;;19.00;96.80;;;;;;5082363;28;20975;-81
2022/12/14 10:57:00;;;;;;;0.20;0.20;;;19.00;96.90;;;;;;5080386;28;20189;-83
2022/12/14 10:59:38;;;;;;;0.20;0.20;;;19.00;97.00;;;;;;5081808;28;20232;-82
2022/12/14 11:02:15;;;;;;;0.70;0.40;;;19.00;97.30;;;;;;5082711;28;20205;-82
2022/12/14 11:04:53;;;;;;;0.95;0.40;;;18.90;97.20;;;;;;5084792;28;20571;-82
2022/12/14 11:07:25;;;;;;;2.13;0.30;;;18.90;97.20;;;;;;5080677;28;20196;-83
2022/12/14 11:10:14;;;;;;;0.95;0.40;;;18.90;97.40;;;;;;5082876;28;20555;-83
2022/12/14 11:13:05;;;;;;;0.77;0.30;;;18.90;97.40;;;;;;5088060;28;20197;-82
2022/12/14 11:15:37;;;;;;;1.23;0.40;;;18.90;97.70;;;;;;5076461;28;20200;-82
2022/12/14 11:18:30;;;;;;;0.30;0.30;;;18.90;97.80;;;;;;5096776;28;20587;-83
2022/12/14 11:21:03;;;;;;;0.43;0.30;;;18.90;97.90;;;;;;5091440;28;20698;-83
2022/12/14 11:23:39;;;;;;;0.70;0.40;;;18.80;98.00;;;;;;5097084;28;20195;-83
2022/12/14 11:26:14;;;;;;;1.27;0.45;;;18.80;98.30;;;;;;5093219;28;20200;-83
2022/12/14 11:28:49;;;;;;;0.80;0.35;;;18.80;98.60;;;;;;5083410;28;20753;-83
2022/12/14 11:31:25;;;;;;;0.77;0.40;;;18.80;99.00;;;;;;5081169;28;20191;-80
2022/12/14 11:33:59;;;;;;;1.65;0.45;;;18.70;99.30;;;;;;5089261;28;20747;-80
2022/12/14 11:36:32;;;;;;;1.15;0.40;;;18.60;99.50;;;;;;5090863;28;20780;-79
2022/12/14 11:39:05;;;;;;;0.93;0.40;;;18.60;99.80;;;;;;5090562;28;20344;-79
2022/12/14 11:41:38;;;;;;;0.47;0.40;;;18.60;99.90;;;;;;5097103;28;20188;-80
2022/12/14 11:44:24;;;;;;;1.45;0.40;;;18.50;99.90;;;;;;5090300;28;20204;-80
2022/12/14 11:47:07;;;;;;;0.68;0.40;;;18.50;99.90;;;;;;5093566;28;20632;-80
2022/12/14 11:49:46;;;;;;;1.38;0.47;;;18.50;99.90;;;;;;5093746;28;20196;-80
2022/12/14 11:52:19;;;;;;;0.90;0.32;;;18.50;99.90;;;;;;5090968;28;20274;-80
2022/12/14 11:55:05;;;;;;;1.55;0.50;;;18.50;99.90;;;;;;5096209;28;20203;-80
2022/12/14 11:57:40;;;;;;;1.00;0.47;;;18.50;99.90;;;;;;5095184;28;20199;-80
2022/12/14 12:00:26;;;;;;;2.10;0.35;;;18.60;99.90;;;;;;5092311;28;20196;-80
2022/12/14 12:03:04;;;;;;;0.85;0.30;;;18.60;99.90;;;;;;5089313;28;20282;-80
2022/12/14 12:05:44;;;;;;;1.48;0.30;;;18.60;99.90;;;;;;5091863;28;20617;-80
2022/12/14 12:08:27;;;;;;;0.70;0.35;;;18.50;99.90;;;;;;5096683;28;20211;-80
2022/12/14 12:11:00;;;;;;;0.50;0.30;;;18.50;99.90;;;;;;5094499;28;20188;-79
2022/12/14 12:13:33;;;;;;;1.52;0.30;;;18.50;99.90;;;;;;5095374;28;20271;-80
2022/12/14 12:16:07;;;;;;;2.47;0.40;;;18.40;99.90;;;;;;5087994;28;20208;-80
2022/12/14 12:18:42;;;;;;;1.50;0.50;;;18.30;99.90;;;;;;5090094;28;20223;-78
2022/12/14 12:21:19;;;;;;;0.90;0.40;;;18.20;99.90;;;;;;5090606;28;20192;-77
2022/12/14 12:23:56;;;;;;;2.55;0.77;;;18.20;99.90;;;;;;5084087;28;20201;-78
2022/12/14 12:26:33;;;;;;;1.40;0.40;;;18.20;99.90;;;;;;5084596;28;20203;-78
2022/12/14 12:29:13;;;;;;;0.75;0.20;;;18.20;99.90;;;;;;5075245;28;20193;-78
2022/12/14 12:31:50;;;;;;;1.95;0.32;;;18.20;99.90;;;;;;5083958;28;20187;-78
2022/12/14 12:34:27;;;;;;;2.13;0.50;;;18.20;99.90;;;;;;5095617;28;20231;-77
2022/12/14 12:37:05;;;;;;;2.30;0.40;;;18.10;99.90;;;;;;5095686;28;20199;-78
2022/12/14 12:39:38;;;;;;;1.40;0.40;;;18.10;99.90;;;;;;5093839;28;20580;-78
2022/12/14 12:42:22;;;;;;;2.22;0.47;;;18.10;99.90;;;;;;5092080;28;20718;-79
2022/12/14 12:45:01;;;;;;;3.85;0.47;;;18.00;99.90;;;;;;5093785;28;20192;-78
2022/12/14 12:47:37;;;;;;;1.83;0.45;;;18.00;99.90;;;;;;5090540;28;20196;-78
2022/12/14 12:50:15;;;;;;;3.33;0.50;;;18.00;99.90;;;;;;5092928;28;20196;-78
2022/12/14 12:52:55;;;;;;;0.98;0.30;;;18.00;99.90;;;;;;5093728;28;20638;-78
2022/12/14 12:55:28;;;;;;;1.85;0.40;;;17.90;99.90;;;;;;5093779;28;20192;-78
2022/12/14 12:58:00;;;;;;;1.00;0.50;;;17.90;99.90;;;;;;5095083;28;20195;-78
2022/12/14 13:00:32;;;;;;;2.53;0.50;;;17.80;99.90;;;;;;5088738;28;20189;-79
2022/12/14 13:03:07;;;;;;;0.45;0.32;;;17.80;99.90;;;;;;5083739;28;20200;-78
2022/12/14 13:05:43;;;;;;;1.85;0.60;;;17.70;99.90;;;;;;5095148;28;20245;-78
2022/12/14 13:08:26;;;;;;;2.53;0.40;;;17.70;99.90;;;;;;5092077;28;20192;-78
2022/12/14 13:11:01;;;;;;;2.45;0.50;;;17.60;99.90;;;;;;5088236;28;20188;-78
2022/12/14 13:13:34;;;;;;;1.15;0.32;;;17.60;99.90;;;;;;5095118;28;20563;-78
2022/12/14 13:16:11;;;;;;;1.05;0.47;;;17.60;99.90;;;;;;5079595;28;20203;-78
2022/12/14 13:18:47;;;;;;;1.90;0.50;;;17.60;99.90;;;;;;5094237;28;20567;-78
2022/12/14 13:21:30;;;;;;;2.63;0.50;;;17.50;99.90;;;;;;5095064;28;20752;-78
2022/12/14 13:24:03;;;;;;;2.00;0.50;;;17.60;99.90;;;;;;5079856;28;20197;-78
2022/12/14 13:26:53;;;;;;;4.50;0.47;;;17.50;99.90;;;;;;5082751;28;20560;-77
2022/12/14 13:29:35;;;;;;;2.28;0.47;;;17.40;99.90;;;;;;5094898;28;20220;-78
2022/12/14 13:32:21;;;;;;;1.70;0.50;;;17.40;99.90;;;;;;5095180;28;20188;-77
2022/12/14 13:35:02;;;;;;;3.30;0.60;;;17.40;99.90;;;;;;5090738;28;20185;-77
2022/12/14 13:38:01;;;;;;;2.20;0.60;;;17.30;99.90;;;;;;5074769;28;20211;-78